Time;durP1;ratioP1;P1;durP2;ratioP2;P2;SDS_P1;SDS_P2;PMS_P1;PMS_P2;Temp;Humidity;BMP_temperature;BMP_pressure;BME280_temperature;BME280_humidity;BME280_pressure;Samples;Min_cycle;Max_cycle;Signal;HPM_P1;HPM_P2
2023/07/26 00:00:40;;;;;;;7.07;2.63;;;;;;;;;;5076832;28;20377;-58
2023/07/26 00:03:06;;;;;;;6.63;2.92;;;;;;;;;;5089269;28;20112;-58
2023/07/26 00:05:32;;;;;;;6.10;2.50;;;;;;;;;;5077218;28;20544;-58
2023/07/26 00:07:58;;;;;;;4.43;2.70;;;;;;;;;;5067503;28;20037;-59
2023/07/26 00:10:24;;;;;;;4.13;2.40;;;;;;;;;;5059408;28;20051;-58
2023/07/26 00:12:51;;;;;;;6.15;2.60;;;;;;;;;;5055703;28;20127;-58
2023/07/26 00:15:17;;;;;;;8.73;2.65;;;;;;;;;;5055814;28;20077;-58
2023/07/26 00:17:43;;;;;;;9.15;2.83;;;;;;;;;;5053901;28;20041;-58
2023/07/26 00:20:09;;;;;;;7.28;2.40;;;;;;;;;;5055306;28;20033;-58
2023/07/26 00:22:35;;;;;;;8.65;2.60;;;;;;;;;;5052612;28;20128;-58
2023/07/26 00:25:02;;;;;;;11.70;3.30;;;;;;;;;;5052933;28;20049;-58
2023/07/26 00:27:28;;;;;;;5.82;2.67;;;;;;;;;;5056306;28;20049;-58
2023/07/26 00:29:54;;;;;;;5.07;2.55;;;;;;;;;;5054799;28;20028;-58
2023/07/26 00:32:20;;;;;;;13.57;3.22;;;;;;;;;;5056496;28;20124;-59
2023/07/26 00:34:46;;;;;;;5.10;2.28;;;;;;;;;;5053152;28;20055;-58
2023/07/26 00:37:13;;;;;;;9.15;2.72;;;;;;;;;;5056721;28;20323;-58
2023/07/26 00:39:39;;;;;;;8.75;2.00;;;;;;;;;;5053433;28;20171;-59
2023/07/26 00:42:05;;;;;;;5.45;2.20;;;;;;;;;;5057183;28;20098;-58
2023/07/26 00:44:31;;;;;;;4.47;1.95;;;;;;;;;;5054217;28;20060;-58
2023/07/26 00:46:58;;;;;;;6.28;2.28;;;;;;;;;;5055862;28;20056;-58
2023/07/26 00:49:24;;;;;;;4.38;1.70;;;;;;;;;;5055351;28;20109;-58
2023/07/26 00:51:50;;;;;;;4.72;2.05;;;;;;;;;;5053611;28;20447;-58
2023/07/26 00:54:19;;;;;;;4.75;1.90;;;;;;;;;;5062225;28;20075;-58
2023/07/26 00:56:45;;;;;;;8.95;2.17;;;;;;;;;;5059307;28;20057;-58
2023/07/26 00:59:12;;;;;;;6.55;1.95;;;;;;;;;;5070104;28;20079;-58
2023/07/26 01:01:39;;;;;;;5.03;1.88;;;;;;;;;;5073582;28;20048;-58
2023/07/26 01:04:06;;;;;;;6.03;1.95;;;;;;;;;;5064848;28;20098;-58
2023/07/26 01:06:47;;;;;;;5.10;1.92;;;;;;;;;;5065270;28;20044;-58
2023/07/26 01:09:25;;;;;;;19.10;2.83;;;;;;;;;;5062684;28;20341;-58
2023/07/26 01:12:16;;;;;;;4.82;2.28;;;;;;;;;;5059801;28;20149;-58
2023/07/26 01:14:48;;;;;;;4.32;2.05;;;;;;;;;;5055403;28;20074;-58
2023/07/26 01:17:14;;;;;;;5.85;2.05;;;;;;;;;;5066981;28;20071;-58
2023/07/26 01:19:41;;;;;;;6.90;2.38;;;;;;;;;;5063389;28;20085;-58
2023/07/26 01:22:07;;;;;;;10.63;2.30;;;;;;;;;;5078001;28;20040;-58
2023/07/26 01:24:34;;;;;;;6.15;3.00;;;;;;;;;;5059254;28;20044;-58
2023/07/26 01:27:00;;;;;;;6.43;1.98;;;;;;;;;;5071075;28;20047;-58
2023/07/26 01:29:26;;;;;;;10.20;2.72;;;;;;;;;;5053320;28;20167;-58
2023/07/26 01:31:52;;;;;;;8.60;2.47;;;;;;;;;;5063736;28;20044;-58
2023/07/26 01:34:19;;;;;;;5.55;2.42;;;;;;;;;;5053693;28;20044;-59
2023/07/26 01:36:45;;;;;;;4.95;2.15;;;;;;;;;;5051955;28;20059;-59
2023/07/26 01:39:12;;;;;;;7.72;2.15;;;;;;;;;;5053753;28;20120;-58
2023/07/26 01:41:39;;;;;;;7.97;2.35;;;;;;;;;;5055484;28;20140;-58
2023/07/26 01:44:05;;;;;;;8.05;2.85;;;;;;;;;;5054650;28;20041;-58
2023/07/26 01:46:31;;;;;;;5.35;2.13;;;;;;;;;;5053827;28;20048;-58
2023/07/26 01:48:57;;;;;;;6.30;2.13;;;;;;;;;;5053875;28;20390;-58
2023/07/26 01:51:23;;;;;;;6.45;2.33;;;;;;;;;;5055069;28;20111;-58
2023/07/26 01:53:50;;;;;;;9.10;2.00;;;;;;;;;;5052733;28;20043;-58
2023/07/26 01:56:16;;;;;;;7.22;2.45;;;;;;;;;;5055194;28;20043;-58
2023/07/26 01:58:42;;;;;;;8.32;2.30;;;;;;;;;;5056381;28;20403;-58
2023/07/26 02:01:08;;;;;;;6.65;2.22;;;;;;;;;;5060146;28;20041;-58
2023/07/26 02:03:35;;;;;;;8.05;2.22;;;;;;;;;;5072097;28;20110;-59
2023/07/26 02:06:01;;;;;;;4.88;2.63;;;;;;;;;;5072338;28;20086;-58
2023/07/26 02:08:27;;;;;;;7.75;2.10;;;;;;;;;;5070443;28;20052;-59
2023/07/26 02:10:53;;;;;;;5.32;2.15;;;;;;;;;;5064927;28;20453;-58
2023/07/26 02:13:19;;;;;;;6.75;2.42;;;;;;;;;;5059918;28;20429;-59
2023/07/26 02:15:46;;;;;;;5.35;2.50;;;;;;;;;;5064720;28;20170;-59
2023/07/26 02:18:13;;;;;;;8.73;2.47;;;;;;;;;;5057984;28;20068;-58
2023/07/26 02:20:39;;;;;;;12.35;2.60;;;;;;;;;;5071976;28;20066;-59
2023/07/26 02:23:06;;;;;;;7.20;2.55;;;;;;;;;;5070906;28;20040;-58
2023/07/26 02:25:32;;;;;;;4.97;2.13;;;;;;;;;;5071890;28;20514;-58
2023/07/26 02:27:58;;;;;;;6.25;2.40;;;;;;;;;;5071003;28;20040;-58
2023/07/26 02:30:24;;;;;;;5.78;1.95;;;;;;;;;;5065002;28;20052;-58
2023/07/26 02:32:50;;;;;;;5.68;2.00;;;;;;;;;;5051702;28;20066;-58
2023/07/26 02:35:16;;;;;;;14.88;3.15;;;;;;;;;;5052926;28;20072;-58
2023/07/26 02:37:43;;;;;;;5.85;2.22;;;;;;;;;;5051172;28;20483;-58
2023/07/26 02:40:09;;;;;;;4.60;1.70;;;;;;;;;;5055945;28;20048;-58
2023/07/26 02:42:35;;;;;;;5.45;1.75;;;;;;;;;;5052549;28;20077;-58
2023/07/26 02:45:01;;;;;;;7.60;1.80;;;;;;;;;;5049991;28;20150;-58
2023/07/26 02:47:32;;;;;;;6.75;2.35;;;;;;;;;;5052442;28;20132;-58
2023/07/26 02:50:01;;;;;;;6.43;2.15;;;;;;;;;;5050336;28;20484;-58
2023/07/26 02:52:27;;;;;;;10.57;2.88;;;;;;;;;;5054312;28;20069;-58
2023/07/26 02:54:53;;;;;;;12.73;2.63;;;;;;;;;;5052661;28;20032;-58
2023/07/26 02:57:20;;;;;;;9.52;2.08;;;;;;;;;;5053489;28;20041;-58
2023/07/26 02:59:46;;;;;;;5.25;1.90;;;;;;;;;;5054653;28;20048;-58
2023/07/26 03:02:12;;;;;;;7.88;1.90;;;;;;;;;;5051700;28;20045;-58
2023/07/26 03:04:38;;;;;;;13.70;2.53;;;;;;;;;;5051366;28;20052;-58
2023/07/26 03:07:04;;;;;;;6.50;2.45;;;;;;;;;;5052703;28;20072;-58
2023/07/26 03:09:31;;;;;;;7.75;2.28;;;;;;;;;;5052704;28;20063;-58
2023/07/26 03:11:57;;;;;;;5.68;2.45;;;;;;;;;;5048196;28;20099;-58
2023/07/26 03:14:23;;;;;;;5.32;2.00;;;;;;;;;;5050598;28;20531;-58
2023/07/26 03:16:49;;;;;;;7.38;2.65;;;;;;;;;;5056401;28;20041;-58
2023/07/26 03:19:15;;;;;;;5.60;2.25;;;;;;;;;;5050671;28;20504;-59
2023/07/26 03:21:41;;;;;;;6.13;2.28;;;;;;;;;;5055179;28;20062;-58
2023/07/26 03:24:08;;;;;;;8.65;3.22;;;;;;;;;;5052023;28;20133;-58
2023/07/26 03:26:34;;;;;;;8.88;2.95;;;;;;;;;;5050457;28;21875;-59
2023/07/26 03:29:00;;;;;;;11.68;2.83;;;;;;;;;;5054465;28;20045;-58
2023/07/26 03:31:26;;;;;;;7.88;2.80;;;;;;;;;;5061571;28;20499;-58
2023/07/26 03:33:52;;;;;;;8.38;2.78;;;;;;;;;;5057358;28;21224;-58
2023/07/26 03:36:19;;;;;;;5.22;2.63;;;;;;;;;;5062856;28;20414;-58
2023/07/26 03:38:45;;;;;;;9.95;2.80;;;;;;;;;;5057383;28;20186;-59
2023/07/26 03:41:11;;;;;;;7.93;2.40;;;;;;;;;;5067084;28;20047;-58
2023/07/26 03:43:37;;;;;;;6.22;2.83;;;;;;;;;;5070119;28;20037;-58
2023/07/26 03:46:03;;;;;;;17.48;3.03;;;;;;;;;;5076566;28;20504;-58
2023/07/26 03:48:29;;;;;;;6.32;2.28;;;;;;;;;;5063831;28;20040;-58
2023/07/26 03:50:56;;;;;;;5.68;2.00;;;;;;;;;;5070270;28;20090;-58
2023/07/26 03:53:22;;;;;;;7.05;2.08;;;;;;;;;;5053606;28;20496;-58
2023/07/26 03:55:48;;;;;;;5.63;2.38;;;;;;;;;;5053249;28;20067;-58
2023/07/26 03:58:14;;;;;;;6.85;2.58;;;;;;;;;;5052971;28;20408;-58
2023/07/26 04:00:40;;;;;;;6.05;2.15;;;;;;;;;;5051750;28;20045;-58
2023/07/26 04:03:06;;;;;;;8.60;3.15;;;;;;;;;;5058659;28;20068;-58
2023/07/26 04:05:33;;;;;;;7.95;2.67;;;;;;;;;;5068698;28;20492;-59
2023/07/26 04:07:59;;;;;;;5.25;2.50;;;;;;;;;;5067141;28;20040;-58
2023/07/26 04:10:26;;;;;;;7.07;2.83;;;;;;;;;;5069166;28;20500;-58
2023/07/26 04:12:52;;;;;;;8.20;2.53;;;;;;;;;;5068853;28;20044;-58
2023/07/26 04:15:19;;;;;;;6.70;2.85;;;;;;;;;;5068857;28;20040;-59
2023/07/26 04:17:45;;;;;;;7.18;2.65;;;;;;;;;;5061232;28;20444;-58
2023/07/26 04:20:11;;;;;;;8.75;3.70;;;;;;;;;;5070343;28;20048;-58
2023/07/26 04:22:37;;;;;;;10.23;3.58;;;;;;;;;;5069416;28;20042;-58
2023/07/26 04:25:04;;;;;;;7.82;3.22;;;;;;;;;;5070039;28;20062;-58
2023/07/26 04:27:30;;;;;;;10.63;3.15;;;;;;;;;;5069644;28;20058;-58
2023/07/26 04:29:56;;;;;;;6.38;3.25;;;;;;;;;;5067998;28;20040;-59
2023/07/26 04:32:22;;;;;;;10.05;3.92;;;;;;;;;;5064925;28;20041;-58
2023/07/26 04:34:49;;;;;;;7.75;3.20;;;;;;;;;;5079805;28;20044;-58
2023/07/26 04:37:15;;;;;;;6.55;3.72;;;;;;;;;;5051836;28;20057;-58
2023/07/26 04:39:41;;;;;;;9.40;3.80;;;;;;;;;;5067929;28;20119;-58
2023/07/26 04:42:07;;;;;;;10.23;3.80;;;;;;;;;;5070468;28;20115;-58
2023/07/26 04:44:33;;;;;;;6.95;3.10;;;;;;;;;;5065086;28;20041;-58
2023/07/26 04:47:00;;;;;;;14.27;4.07;;;;;;;;;;5068642;28;20138;-59
2023/07/26 04:49:26;;;;;;;7.90;3.63;;;;;;;;;;5062940;28;20045;-58
2023/07/26 04:51:52;;;;;;;10.23;3.95;;;;;;;;;;5062364;28;20063;-58
2023/07/26 04:54:18;;;;;;;8.60;3.08;;;;;;;;;;5071683;28;20040;-59
2023/07/26 04:56:44;;;;;;;7.63;3.00;;;;;;;;;;5073030;28;20052;-58
2023/07/26 04:59:11;;;;;;;11.43;3.25;;;;;;;;;;5068581;28;20119;-58
2023/07/26 05:01:37;;;;;;;10.48;3.25;;;;;;;;;;5063112;28;20036;-58
2023/07/26 05:04:03;;;;;;;8.75;3.15;;;;;;;;;;5081925;28;20403;-58
2023/07/26 05:06:30;;;;;;;11.00;3.45;;;;;;;;;;5071215;28;20525;-58
2023/07/26 05:08:57;;;;;;;10.95;3.45;;;;;;;;;;5056969;28;20044;-58
2023/07/26 05:11:23;;;;;;;9.77;3.22;;;;;;;;;;5066182;28;20472;-58
2023/07/26 05:13:50;;;;;;;8.73;3.60;;;;;;;;;;5066477;28;20070;-58
2023/07/26 05:16:16;;;;;;;9.02;3.38;;;;;;;;;;5071638;28;20063;-58
2023/07/26 05:18:42;;;;;;;7.53;2.88;;;;;;;;;;5054922;28;20072;-59
2023/07/26 05:21:08;;;;;;;12.48;3.13;;;;;;;;;;5058093;28;20067;-58
2023/07/26 05:23:34;;;;;;;6.18;3.00;;;;;;;;;;5058817;28;20479;-58
2023/07/26 05:26:01;;;;;;;7.80;2.78;;;;;;;;;;5063716;28;20366;-58
2023/07/26 05:28:27;;;;;;;9.60;3.58;;;;;;;;;;5056566;28;20063;-59
2023/07/26 05:30:55;;;;;;;11.77;3.30;;;;;;;;;;5068233;28;20108;-58
2023/07/26 05:33:21;;;;;;;27.08;3.65;;;;;;;;;;5059837;28;20132;-58
2023/07/26 05:35:48;;;;;;;18.02;5.13;;;;;;;;;;5057037;28;20140;-58
2023/07/26 05:38:14;;;;;;;14.77;3.55;;;;;;;;;;5054237;28;20063;-58
2023/07/26 05:40:40;;;;;;;15.70;3.85;;;;;;;;;;5059453;28;20477;-58
2023/07/26 05:43:06;;;;;;;8.38;3.47;;;;;;;;;;5063844;28;20174;-58
2023/07/26 05:45:32;;;;;;;8.57;2.90;;;;;;;;;;5057887;28;20053;-58
2023/07/26 05:47:59;;;;;;;10.18;3.75;;;;;;;;;;5065372;28;20230;-58
2023/07/26 05:50:25;;;;;;;10.35;3.25;;;;;;;;;;5054124;28;20045;-58
2023/07/26 05:52:51;;;;;;;9.85;3.50;;;;;;;;;;5069665;28;20473;-58
2023/07/26 05:55:17;;;;;;;13.27;5.22;;;;;;;;;;5059744;28;20041;-58
2023/07/26 05:57:44;;;;;;;7.93;2.90;;;;;;;;;;5078275;28;20444;-58
2023/07/26 06:00:13;;;;;;;8.05;3.25;;;;;;;;;;5071753;28;20045;-57
2023/07/26 06:02:39;;;;;;;8.05;3.53;;;;;;;;;;5070564;28;20540;-58
2023/07/26 06:05:05;;;;;;;8.90;3.20;;;;;;;;;;5069667;28;20051;-58
2023/07/26 06:07:32;;;;;;;9.65;3.40;;;;;;;;;;5069664;28;20395;-58
2023/07/26 06:09:58;;;;;;;9.68;3.03;;;;;;;;;;5068452;28;20109;-58
2023/07/26 06:12:24;;;;;;;8.43;2.60;;;;;;;;;;5066266;28;20546;-58
2023/07/26 06:14:51;;;;;;;10.02;3.08;;;;;;;;;;5069178;28;20484;-58
2023/07/26 06:17:17;;;;;;;6.65;3.30;;;;;;;;;;5068604;28;20044;-58
2023/07/26 06:19:43;;;;;;;9.13;3.00;;;;;;;;;;5069387;28;20067;-58
2023/07/26 06:22:12;;;;;;;13.02;3.40;;;;;;;;;;5066816;28;20472;-59
2023/07/26 06:24:38;;;;;;;7.10;2.50;;;;;;;;;;5067940;28;21198;-58
2023/07/26 06:27:04;;;;;;;9.80;3.05;;;;;;;;;;5070007;28;20098;-58
2023/07/26 06:29:30;;;;;;;10.73;3.45;;;;;;;;;;5068049;28;20040;-64
2023/07/26 06:31:57;;;;;;;6.70;3.28;;;;;;;;;;5066455;28;20494;-58
2023/07/26 06:34:23;;;;;;;7.82;3.13;;;;;;;;;;5069663;28;20490;-58
2023/07/26 06:36:49;;;;;;;8.18;3.33;;;;;;;;;;5068617;28;20051;-58
2023/07/26 06:39:15;;;;;;;5.40;2.85;;;;;;;;;;5067999;28;20435;-58
2023/07/26 06:41:41;;;;;;;9.02;2.97;;;;;;;;;;5065466;28;20051;-58
2023/07/26 06:44:08;;;;;;;6.97;2.92;;;;;;;;;;5066721;28;20103;-59
2023/07/26 06:46:34;;;;;;;6.93;3.22;;;;;;;;;;5073288;28;20056;-58
2023/07/26 06:49:02;;;;;;;8.45;3.00;;;;;;;;;;5069406;28;20154;-58
2023/07/26 06:51:28;;;;;;;6.88;2.92;;;;;;;;;;5067839;28;20040;-58
2023/07/26 06:53:54;;;;;;;16.38;4.10;;;;;;;;;;5063969;28;20572;-58
2023/07/26 06:56:20;;;;;;;5.75;2.78;;;;;;;;;;5067497;28;20048;-58
2023/07/26 06:58:46;;;;;;;5.82;2.65;;;;;;;;;;5061731;28;20048;-58
2023/07/26 07:01:18;;;;;;;4.97;2.17;;;;;;;;;;5068056;28;20036;-67
2023/07/26 07:03:45;;;;;;;6.72;2.53;;;;;;;;;;5068925;28;20142;-58
2023/07/26 07:06:11;;;;;;;6.28;2.50;;;;;;;;;;5070836;28;20051;-58
2023/07/26 07:08:38;;;;;;;6.90;3.30;;;;;;;;;;5069091;28;20110;-58
2023/07/26 07:11:05;;;;;;;5.72;2.53;;;;;;;;;;5067743;28;20044;-58
2023/07/26 07:13:34;;;;;;;6.95;2.97;;;;;;;;;;5068613;28;20064;-58
2023/07/26 07:16:00;;;;;;;7.20;2.55;;;;;;;;;;5065459;28;20408;-58
2023/07/26 07:18:27;;;;;;;8.80;2.47;;;;;;;;;;5066646;28;20056;-58
2023/07/26 07:20:57;;;;;;;6.70;2.80;;;;;;;;;;5063288;28;20032;-58
2023/07/26 07:23:24;;;;;;;8.38;2.90;;;;;;;;;;5064051;28;21325;-58
2023/07/26 07:25:50;;;;;;;6.05;2.70;;;;;;;;;;5060744;28;20044;-58
2023/07/26 07:28:16;;;;;;;6.63;3.00;;;;;;;;;;5062726;28;20044;-58
2023/07/26 07:30:43;;;;;;;6.07;2.67;;;;;;;;;;5064487;28;20044;-59
2023/07/26 07:33:10;;;;;;;5.50;2.80;;;;;;;;;;5061173;28;20089;-58
2023/07/26 07:35:36;;;;;;;6.97;2.90;;;;;;;;;;5063414;28;20040;-59
2023/07/26 07:38:02;;;;;;;6.32;2.15;;;;;;;;;;5061133;28;20036;-59
2023/07/26 07:40:28;;;;;;;5.88;2.17;;;;;;;;;;5064523;28;20037;-59
2023/07/26 07:42:54;;;;;;;6.30;2.92;;;;;;;;;;5063750;28;20102;-59
2023/07/26 07:45:20;;;;;;;5.53;2.90;;;;;;;;;;5066335;28;20132;-59
2023/07/26 07:47:47;;;;;;;7.85;2.55;;;;;;;;;;5060181;28;20536;-59
2023/07/26 07:50:13;;;;;;;4.95;2.42;;;;;;;;;;5061545;28;20037;-59
2023/07/26 07:52:39;;;;;;;6.28;2.67;;;;;;;;;;5066511;28;20090;-59
2023/07/26 07:55:05;;;;;;;6.63;2.25;;;;;;;;;;5067936;28;20447;-59
2023/07/26 07:57:32;;;;;;;7.50;2.83;;;;;;;;;;5068307;28;20135;-59
2023/07/26 07:59:58;;;;;;;6.60;3.30;;;;;;;;;;5066593;28;20041;-59
2023/07/26 08:02:24;;;;;;;9.57;4.20;;;;;;;;;;5065696;28;20049;-59
2023/07/26 08:04:50;;;;;;;9.80;4.45;;;;;;;;;;5065494;28;20040;-61
2023/07/26 08:07:16;;;;;;;9.10;4.68;;;;;;;;;;5065983;28;20464;-58
2023/07/26 08:09:43;;;;;;;8.95;4.47;;;;;;;;;;5066778;28;20036;-58
2023/07/26 08:12:09;;;;;;;7.75;4.70;;;;;;;;;;5066876;28;20465;-58
2023/07/26 08:14:35;;;;;;;8.38;4.50;;;;;;;;;;5067432;28;20096;-58
2023/07/26 08:17:01;;;;;;;12.68;5.35;;;;;;;;;;5068614;28;20048;-58
2023/07/26 08:19:27;;;;;;;7.57;4.70;;;;;;;;;;5065792;28;20444;-58
2023/07/26 08:21:55;;;;;;;8.68;3.80;;;;;;;;;;5067137;28;20048;-58
2023/07/26 08:24:21;;;;;;;7.32;3.80;;;;;;;;;;5068169;28;20083;-60
2023/07/26 08:26:47;;;;;;;6.50;3.40;;;;;;;;;;5063866;28;20484;-59
2023/07/26 08:29:14;;;;;;;7.68;3.42;;;;;;;;;;5066095;28;20048;-59
2023/07/26 08:31:40;;;;;;;6.32;3.50;;;;;;;;;;5068139;28;20064;-59
2023/07/26 08:34:06;;;;;;;9.73;4.03;;;;;;;;;;5070020;28;20179;-60
2023/07/26 08:36:32;;;;;;;7.40;3.30;;;;;;;;;;5068141;28;20066;-59
2023/07/26 08:38:58;;;;;;;7.40;2.90;;;;;;;;;;5071851;28;20396;-60
2023/07/26 08:41:25;;;;;;;10.30;3.72;;;;;;;;;;5064397;28;20144;-60
2023/07/26 08:43:55;;;;;;;8.20;3.35;;;;;;;;;;5068100;28;20186;-60
2023/07/26 08:46:21;;;;;;;7.25;3.30;;;;;;;;;;5071626;28;20060;-60
2023/07/26 08:48:48;;;;;;;7.10;3.67;;;;;;;;;;5070413;28;20510;-60
2023/07/26 08:51:14;;;;;;;6.65;3.60;;;;;;;;;;5071612;28;20422;-60
2023/07/26 08:53:42;;;;;;;9.50;3.95;;;;;;;;;;5071402;28;20124;-60
2023/07/26 08:56:09;;;;;;;6.32;2.97;;;;;;;;;;5063840;28;20032;-60
2023/07/26 08:58:35;;;;;;;7.00;3.75;;;;;;;;;;5066759;28;20123;-60
2023/07/26 09:01:01;;;;;;;8.70;4.10;;;;;;;;;;5062101;28;20052;-60
2023/07/26 09:03:27;;;;;;;9.93;3.67;;;;;;;;;;5069248;28;20131;-60
2023/07/26 09:06:04;;;;;;;8.27;3.08;;;;;;;;;;5068351;28;20413;-60
2023/07/26 09:08:30;;;;;;;6.32;2.75;;;;;;;;;;5071416;28;20154;-60
2023/07/26 09:10:56;;;;;;;9.77;3.50;;;;;;;;;;5065178;28;20063;-60
2023/07/26 09:13:23;;;;;;;8.48;3.20;;;;;;;;;;5065941;28;20044;-60
2023/07/26 09:15:49;;;;;;;5.68;3.10;;;;;;;;;;5069158;28;20484;-60
2023/07/26 09:18:16;;;;;;;8.20;3.20;;;;;;;;;;5066863;28;20496;-60
2023/07/26 09:20:42;;;;;;;5.95;2.10;;;;;;;;;;5071013;28;20120;-60
2023/07/26 09:23:09;;;;;;;5.13;2.45;;;;;;;;;;5068793;28;20048;-60
2023/07/26 09:25:40;;;;;;;5.85;2.58;;;;;;;;;;5066550;28;20051;-60
2023/07/26 09:28:07;;;;;;;3.88;1.83;;;;;;;;;;5070976;28;20040;-60
2023/07/26 09:30:41;;;;;;;4.82;2.42;;;;;;;;;;5071245;28;20037;-60
2023/07/26 09:33:08;;;;;;;4.85;2.08;;;;;;;;;;5066345;28;20096;-60
2023/07/26 09:35:43;;;;;;;4.57;2.25;;;;;;;;;;5067000;28;20417;-60
2023/07/26 09:38:11;;;;;;;4.47;2.10;;;;;;;;;;5066493;28;20047;-60
2023/07/26 09:40:37;;;;;;;4.38;1.95;;;;;;;;;;5068901;28;20061;-60
2023/07/26 09:43:03;;;;;;;5.50;1.88;;;;;;;;;;5070983;28;20119;-60
2023/07/26 09:45:31;;;;;;;3.83;2.00;;;;;;;;;;5061879;28;20512;-60
2023/07/26 09:48:10;;;;;;;4.18;2.00;;;;;;;;;;5061187;28;21034;-60
2023/07/26 09:50:37;;;;;;;5.07;2.10;;;;;;;;;;5066079;28;20064;-60
2023/07/26 09:53:07;;;;;;;3.95;2.25;;;;;;;;;;5066496;28;20551;-60
2023/07/26 09:55:33;;;;;;;5.32;2.53;;;;;;;;;;5070837;28;20090;-60
2023/07/26 09:58:00;;;;;;;4.05;2.03;;;;;;;;;;5058038;28;20092;-60
2023/07/26 10:00:28;;;;;;;4.32;2.38;;;;;;;;;;5069657;28;20117;-60
2023/07/26 10:02:56;;;;;;;4.72;2.08;;;;;;;;;;5070124;28;20044;-60
2023/07/26 10:05:25;;;;;;;5.60;2.50;;;;;;;;;;5067140;28;20059;-60
2023/07/26 10:07:52;;;;;;;5.38;2.80;;;;;;;;;;5064892;28;20068;-60
2023/07/26 10:10:19;;;;;;;6.60;2.60;;;;;;;;;;5071118;28;20150;-60
2023/07/26 10:12:46;;;;;;;5.57;2.58;;;;;;;;;;5069878;28;20049;-60
2023/07/26 10:15:13;;;;;;;6.47;2.97;;;;;;;;;;5069333;28;20032;-60
2023/07/26 10:17:43;;;;;;;7.15;2.70;;;;;;;;;;5069934;28;20492;-61
2023/07/26 10:20:10;;;;;;;5.38;2.90;;;;;;;;;;5074325;28;20055;-60
2023/07/26 10:22:37;;;;;;;7.47;2.45;;;;;;;;;;5068282;28;20048;-60
2023/07/26 10:25:03;;;;;;;7.57;2.55;;;;;;;;;;5066523;28;20132;-60
2023/07/26 10:27:29;;;;;;;8.15;2.63;;;;;;;;;;5068052;28;20049;-60
2023/07/26 10:29:56;;;;;;;6.40;2.80;;;;;;;;;;5065556;28;20106;-60
2023/07/26 10:32:22;;;;;;;6.80;2.72;;;;;;;;;;5063828;28;20462;-60
2023/07/26 10:35:06;;;;;;;5.88;2.50;;;;;;;;;;5067389;28;20198;-60
2023/07/26 10:37:33;;;;;;;5.07;2.45;;;;;;;;;;5069879;28;20044;-60
2023/07/26 10:40:00;;;;;;;6.68;2.30;;;;;;;;;;5069444;28;20070;-60
2023/07/26 10:42:30;;;;;;;7.78;2.70;;;;;;;;;;5068328;28;20186;-61
2023/07/26 10:44:59;;;;;;;5.93;1.83;;;;;;;;;;5066170;28;20139;-60
2023/07/26 10:47:25;;;;;;;5.00;1.58;;;;;;;;;;5069505;28;20160;-60
2023/07/26 10:49:54;;;;;;;9.52;1.67;;;;;;;;;;5068242;28;20123;-60
2023/07/26 10:52:20;;;;;;;4.25;1.50;;;;;;;;;;5067852;28;20044;-60
2023/07/26 10:54:48;;;;;;;3.22;1.23;;;;;;;;;;5069845;28;20396;-60
2023/07/26 10:57:20;;;;;;;4.75;1.73;;;;;;;;;;5068843;28;20044;-60
2023/07/26 11:00:04;;;;;;;4.53;1.50;;;;;;;;;;5068278;28;20040;-60
2023/07/26 11:02:30;;;;;;;;;;;;;;;;;;5068883;28;20445;-59
2023/07/26 11:04:57;;;;;;;5.13;1.58;;;;;;;;;;5070234;28;19974;-60
2023/07/26 11:07:43;;;;;;;5.20;1.85;;;;;;;;;;5067703;28;20480;-60
2023/07/26 11:10:23;;;;;;;6.53;1.83;;;;;;;;;;5065422;28;20040;-60
2023/07/26 11:12:50;;;;;;;3.28;1.38;;;;;;;;;;5065288;28;20067;-60
2023/07/26 11:15:26;;;;;;;4.50;1.95;;;;;;;;;;5068599;28;20071;-60
2023/07/26 11:17:53;;;;;;;4.72;1.67;;;;;;;;;;5068308;28;20116;-59
2023/07/26 11:20:20;;;;;;;6.93;1.90;;;;;;;;;;5065788;28;20540;-60
2023/07/26 11:22:46;;;;;;;4.97;1.40;;;;;;;;;;5066834;28;20040;-60
2023/07/26 11:25:13;;;;;;;3.60;1.52;;;;;;;;;;5068138;28;20047;-60
2023/07/26 11:27:39;;;;;;;4.65;1.60;;;;;;;;;;5064270;28;20056;-60
2023/07/26 11:30:06;;;;;;;3.70;1.40;;;;;;;;;;5067289;28;20060;-59
2023/07/26 11:32:33;;;;;;;3.40;1.33;;;;;;;;;;5066528;28;20056;-60
2023/07/26 11:35:00;;;;;;;3.40;1.50;;;;;;;;;;5067120;28;20115;-60
2023/07/26 11:37:26;;;;;;;3.30;1.30;;;;;;;;;;5069094;28;20772;-60
2023/07/26 11:40:05;;;;;;;3.33;1.10;;;;;;;;;;5067900;28;20052;-60
2023/07/26 11:42:34;;;;;;;5.78;1.50;;;;;;;;;;5066951;28;20075;-63
2023/07/26 11:45:04;;;;;;;6.95;1.83;;;;;;;;;;5067830;28;20480;-63
2023/07/26 11:47:37;;;;;;;4.75;1.30;;;;;;;;;;5068563;28;20052;-75
2023/07/26 11:50:03;;;;;;;4.22;1.55;;;;;;;;;;5049280;28;20037;-75
2023/07/26 11:52:29;;;;;;;4.18;1.35;;;;;;;;;;5066466;28;20048;-74
2023/07/26 11:54:58;;;;;;;8.25;1.92;;;;;;;;;;5066347;28;20407;-74
2023/07/26 11:57:25;;;;;;;6.50;1.10;;;;;;;;;;5064025;28;20049;-75
2023/07/26 11:59:53;;;;;;;5.18;1.20;;;;;;;;;;5048747;28;20037;-61
2023/07/26 12:02:19;;;;;;;4.15;1.23;;;;;;;;;;5068437;28;20056;-61
2023/07/26 12:05:04;;;;;;;4.75;1.42;;;;;;;;;;5071425;28;20044;-61
2023/07/26 12:07:30;;;;;;;4.47;1.58;;;;;;;;;;5070678;28;20162;-61
2023/07/26 12:09:57;;;;;;;4.47;1.45;;;;;;;;;;5072642;28;20131;-61
2023/07/26 12:12:23;;;;;;;5.43;1.40;;;;;;;;;;5066169;28;20040;-61
2023/07/26 12:14:50;;;;;;;5.22;1.35;;;;;;;;;;5066269;28;20048;-61
2023/07/26 12:17:16;;;;;;;4.00;1.20;;;;;;;;;;5066610;28;20037;-61
2023/07/26 12:19:45;;;;;;;3.28;1.42;;;;;;;;;;5068677;28;20089;-61
2023/07/26 12:22:11;;;;;;;3.45;1.30;;;;;;;;;;5070538;28;20050;-66
2023/07/26 12:24:54;;;;;;;4.30;1.30;;;;;;;;;;5069634;28;20032;-63
2023/07/26 12:27:20;;;;;;;4.35;1.60;;;;;;;;;;5066371;28;20040;-71
2023/07/26 12:29:47;;;;;;;3.40;1.23;;;;;;;;;;5070660;28;20052;-78
2023/07/26 12:32:17;;;;;;;4.53;1.13;;;;;;;;;;5062456;28;20365;-79
2023/07/26 12:34:43;;;;;;;3.53;1.30;;;;;;;;;;5065979;28;20068;-61
2023/07/26 12:37:10;;;;;;;3.03;1.17;;;;;;;;;;5071889;28;20037;-61
2023/07/26 12:39:39;;;;;;;3.88;1.30;;;;;;;;;;5069023;28;20135;-61
2023/07/26 12:42:06;;;;;;;5.25;1.42;;;;;;;;;;5064436;28;20041;-61
2023/07/26 12:44:33;;;;;;;4.10;1.35;;;;;;;;;;5068639;28;20514;-61
2023/07/26 12:47:00;;;;;;;4.25;1.40;;;;;;;;;;5068527;28;20399;-62
2023/07/26 12:49:27;;;;;;;3.33;1.30;;;;;;;;;;5070957;28;20075;-61
2023/07/26 12:51:54;;;;;;;4.22;1.20;;;;;;;;;;5071725;28;20044;-59
2023/07/26 12:54:21;;;;;;;6.60;1.67;;;;;;;;;;5069369;28;20104;-59
2023/07/26 12:56:47;;;;;;;5.03;1.27;;;;;;;;;;5072509;28;20068;-59
2023/07/26 12:59:13;;;;;;;4.90;1.30;;;;;;;;;;5071436;28;20131;-59
2023/07/26 13:01:40;;;;;;;3.60;1.35;;;;;;;;;;5069899;28;20052;-59
2023/07/26 13:04:07;;;;;;;3.15;1.23;;;;;;;;;;5071572;28;20159;-59
2023/07/26 13:06:33;;;;;;;4.82;1.55;;;;;;;;;;5071798;28;20059;-59
2023/07/26 13:09:00;;;;;;;5.15;1.90;;;;;;;;;;5068446;28;20081;-59
2023/07/26 13:11:26;;;;;;;5.75;1.60;;;;;;;;;;5067658;28;20975;-59
2023/07/26 13:13:52;;;;;;;4.13;1.20;;;;;;;;;;5081128;28;20459;-59
2023/07/26 13:16:20;;;;;;;5.43;1.63;;;;;;;;;;5067848;28;20048;-59
2023/07/26 13:18:46;;;;;;;5.82;1.45;;;;;;;;;;5060246;28;20052;-59
2023/07/26 13:21:12;;;;;;;4.32;1.50;;;;;;;;;;5070091;28;20043;-59
2023/07/26 13:23:39;;;;;;;3.72;1.27;;;;;;;;;;5063572;28;20041;-59
2023/07/26 13:26:05;;;;;;;5.53;1.70;;;;;;;;;;5063761;28;20107;-59
2023/07/26 13:28:31;;;;;;;5.40;1.40;;;;;;;;;;5069085;28;20194;-59
2023/07/26 13:30:58;;;;;;;4.40;1.50;;;;;;;;;;5066924;28;20132;-59
2023/07/26 13:33:24;;;;;;;4.20;1.55;;;;;;;;;;5063313;28;20059;-59
2023/07/26 13:35:50;;;;;;;5.75;1.63;;;;;;;;;;5063348;28;20079;-59
2023/07/26 13:38:16;;;;;;;5.15;1.60;;;;;;;;;;5064236;28;20385;-59
2023/07/26 13:40:43;;;;;;;5.78;1.60;;;;;;;;;;5066028;28;20488;-59
2023/07/26 13:43:09;;;;;;;4.13;1.88;;;;;;;;;;5064551;28;20118;-59
2023/07/26 13:45:35;;;;;;;5.53;1.70;;;;;;;;;;5061909;28;20057;-59
2023/07/26 13:48:01;;;;;;;5.38;1.70;;;;;;;;;;5066421;28;20060;-59
2023/07/26 13:50:27;;;;;;;4.88;1.73;;;;;;;;;;5066231;28;20396;-59
2023/07/26 13:52:54;;;;;;;4.45;1.70;;;;;;;;;;5068294;28;20116;-59
2023/07/26 13:55:20;;;;;;;4.20;1.52;;;;;;;;;;5065235;28;20390;-59
2023/07/26 13:57:46;;;;;;;6.13;1.58;;;;;;;;;;5068115;28;20036;-59
2023/07/26 14:00:12;;;;;;;4.55;1.95;;;;;;;;;;5069000;28;20041;-59
2023/07/26 14:02:39;;;;;;;4.97;1.95;;;;;;;;;;5070023;28;20085;-59
2023/07/26 14:05:05;;;;;;;4.55;1.50;;;;;;;;;;5070011;28;20036;-59
2023/07/26 14:07:31;;;;;;;4.88;1.90;;;;;;;;;;5065478;28;20052;-59
2023/07/26 14:09:58;;;;;;;5.53;1.58;;;;;;;;;;5068410;28;20186;-59
2023/07/26 14:12:24;;;;;;;4.93;1.70;;;;;;;;;;5063330;28;20059;-59
2023/07/26 14:14:50;;;;;;;4.95;1.48;;;;;;;;;;5068734;28;20139;-60
2023/07/26 14:17:17;;;;;;;3.88;1.60;;;;;;;;;;5069998;28;20056;-59
2023/07/26 14:19:43;;;;;;;4.60;1.70;;;;;;;;;;5067139;28;20043;-59
2023/07/26 14:22:09;;;;;;;4.43;1.70;;;;;;;;;;5058441;28;20446;-59
2023/07/26 14:24:35;;;;;;;6.95;2.38;;;;;;;;;;5068372;28;20120;-59
2023/07/26 14:27:01;;;;;;;3.92;1.30;;;;;;;;;;5062913;28;20049;-59
2023/07/26 14:29:29;;;;;;;5.05;1.80;;;;;;;;;;5067347;28;20503;-59
2023/07/26 14:31:56;;;;;;;6.82;1.85;;;;;;;;;;5069847;28;21451;-59
2023/07/26 14:34:23;;;;;;;5.68;2.00;;;;;;;;;;5069220;28;20041;-59
2023/07/26 14:36:49;;;;;;;6.07;1.63;;;;;;;;;;5069387;28;20441;-61
2023/07/26 14:39:15;;;;;;;4.78;1.80;;;;;;;;;;5065840;28;20054;-59
2023/07/26 14:41:41;;;;;;;6.43;2.42;;;;;;;;;;5065895;28;20035;-59